This is the latest recevied weather packets stored in our database for station/object HB9HJL-11. If no packets are shown the sender has not sent any weather packets the latest 10 day(s).
| Time | Temp. | Humidity | Pressure | Rain* | Wind** | Luminosity | Snow |
|---|---|---|---|---|---|---|---|
| 1777317434 | 13.89° C | 53% | 946 hPa | - | - | - | - |
| 1777316534 | 15° C | 49% | 943 hPa | - | - | - | - |
| 1777315634 | 16.11° C | 48% | 942 hPa | - | - | - | - |
| 1777314734 | 16.67° C | 46% | 941 hPa | - | - | - | - |
| 1777313833 | 17.78° C | 44% | 940 hPa | - | - | - | - |
| 1777312934 | 18.33° C | 42% | 938 hPa | - | - | - | - |
| 1777312033 | 19.44° C | 41% | 938 hPa | - | - | - | - |
| 1777311133 | 19.44° C | 39% | 937 hPa | - | - | - | - |
| 1777310233 | 20° C | 37% | 932 hPa | - | - | - | - |
| 1777309333 | 20.56° C | 34% | 930 hPa | - | - | - | - |
| 1777308433 | 21.67° C | 33% | 929 hPa | - | - | - | - |
| 1777307533 | 22.78° C | 32% | 929 hPa | - | - | - | - |
| 1777306633 | 23.33° C | 30% | 928 hPa | - | - | - | - |
| 1777305733 | 23.33° C | 30% | 927 hPa | - | - | - | - |
| 1777304833 | 23.89° C | 30% | 927 hPa | - | - | - | - |
| 1777303932 | 23.89° C | 29% | 926 hPa | - | - | - | - |
| 1777303032 | 24.44° C | 27% | 925 hPa | - | - | - | - |
| 1777302132 | 22.22° C | 29% | 921 hPa | - | - | - | - |
| 1777301232 | 24.44° C | 28% | 925 hPa | - | - | - | - |
| 1777300332 | 25° C | 28% | 925 hPa | - | - | - | - |
| 1777299432 | 23.89° C | 28% | 923 hPa | - | - | - | - |
| 1777298532 | 24.44° C | 28% | 925 hPa | - | - | - | - |
| 1777297632 | 25° C | 28% | 926 hPa | - | - | - | - |
| 1777296732 | 25° C | 27% | 925 hPa | - | - | - | - |
| 1777295831 | 25° C | 28% | 926 hPa | - | - | - | - |
* Rain since midnight (hover to see other rain measurements)
** Current wind speed in m/s (hover to see current wind gust speed)